Time;durP1;ratioP1;P1;durP2;ratioP2;P2;SDS_P1;SDS_P2;PMS_P1;PMS_P2;Temp;Humidity;BMP_temperature;BMP_pressure;BME280_temperature;BME280_humidity;BME280_pressure;Samples;Min_cycle;Max_cycle;Signal;HPM_P1;HPM_P2
2023/12/26 00:00:12;;;;;;;;;;;;;;;12.76;94.83;100403.16;7301900;19;19929;-68
2023/12/26 00:02:39;;;;;;;;;;;;;;;12.77;95.72;100396.88;7291423;19;19915;-67
2023/12/26 00:05:06;;;;;;;;;;;;;;;12.75;94.71;100406.78;7303221;19;19911;-68
2023/12/26 00:07:33;;;;;;;;;;;;;;;12.72;95.18;100408.97;7296822;19;19925;-67
2023/12/26 00:10:00;;;;;;;;;;;;;;;12.72;95.36;100401.88;7308764;19;19919;-67
2023/12/26 00:12:27;;;;;;;;;;;;;;;12.73;95.65;100395.59;7315627;19;19999;-68
2023/12/26 00:14:53;;;;;;;;;;;;;;;12.71;95.31;100391.47;7296790;19;19917;-68
2023/12/26 00:17:20;;;;;;;;;;;;;;;12.69;95.29;100394.31;7288550;19;20358;-67
2023/12/26 00:19:49;;;;;;;;;;;;;;;12.69;95.72;100390.84;7284219;19;19926;-67
2023/12/26 00:22:17;;;;;;;;;;;;;;;12.66;95.78;100383.28;7290665;19;19927;-67
2023/12/26 00:24:43;;;;;;;;;;;;;;;12.68;95.99;100390.03;7301599;19;19919;-67
2023/12/26 00:27:10;;;;;;;;;;;;;;;12.66;96.33;100405.22;7305711;19;20409;-67
2023/12/26 00:29:37;;;;;;;;;;;;;;;12.64;95.91;100404.59;7288835;19;19927;-67
2023/12/26 00:32:04;;;;;;;;;;;;;;;12.63;95.90;100407.41;7287500;19;19934;-67
2023/12/26 00:34:31;;;;;;;;;;;;;;;12.61;95.71;100410.19;7295072;19;19919;-66
2023/12/26 00:36:58;;;;;;;;;;;;;;;12.59;95.64;100414.84;7292003;19;19998;-66
2023/12/26 00:39:25;;;;;;;;;;;;;;;12.60;96.27;100415.66;7298834;19;20010;-67
2023/12/26 00:41:52;;;;;;;;;;;;;;;12.57;95.72;100408.91;7295345;19;20241;-67
2023/12/26 00:44:19;;;;;;;;;;;;;;;12.55;95.57;100413.53;7287604;19;22594;-66
2023/12/26 00:46:46;;;;;;;;;;;;;;;12.57;96.40;100416.84;7298255;19;19923;-68
2023/12/26 00:49:13;;;;;;;;;;;;;;;12.55;96.09;100418.81;7294357;19;20301;-67
2023/12/26 00:51:40;;;;;;;;;;;;;;;12.57;96.53;100423.94;7300978;19;19982;-66
2023/12/26 00:54:07;;;;;;;;;;;;;;;12.58;96.37;100422.94;7298248;19;19919;-66
2023/12/26 00:56:34;;;;;;;;;;;;;;;12.58;95.54;100433.50;7285787;19;19922;-67
2023/12/26 00:59:01;;;;;;;;;;;;;;;12.57;95.05;100432.66;7304785;19;20376;-67
2023/12/26 01:01:28;;;;;;;;;;;;;;;12.55;95.46;100433.81;7295605;19;19954;-67
2023/12/26 01:03:54;;;;;;;;;;;;;;;12.57;96.39;100437.94;7294636;19;19926;-66
2023/12/26 01:06:21;;;;;;;;;;;;;;;12.54;95.41;100435.66;7306775;19;20788;-67
2023/12/26 01:08:48;;;;;;;;;;;;;;;12.54;94.93;100443.59;7292914;19;19919;-67
2023/12/26 01:11:15;;;;;;;;;;;;;;;12.51;94.85;100449.19;7291840;19;19923;-67
2023/12/26 01:13:42;;;;;;;;;;;;;;;12.49;95.01;100460.94;7288015;19;19925;-67
2023/12/26 01:16:09;;;;;;;;;;;;;;;12.46;94.69;100462.09;7308209;19;20010;-67
2023/12/26 01:18:36;;;;;;;;;;;;;;;12.45;94.24;100463.09;7303130;19;19919;-67
2023/12/26 01:21:05;;;;;;;;;;;;;;;12.41;93.45;100465.25;7305473;19;19925;-68
2023/12/26 01:23:32;;;;;;;;;;;;;;;12.36;93.46;100466.78;7294887;19;19923;-67
2023/12/26 01:25:59;;;;;;;;;;;;;;;12.33;94.39;100475.88;7290446;19;19926;-66
2023/12/26 01:28:26;;;;;;;;;;;;;;;12.32;93.60;100478.66;7294335;19;19923;-66
2023/12/26 01:30:53;;;;;;;;;;;;;;;12.31;93.41;100475.22;7293842;19;19927;-67
2023/12/26 01:33:20;;;;;;;;;;;;;;;12.29;93.13;100476.38;7302571;19;20023;-68
2023/12/26 01:35:48;;;;;;;;;;;;;;;12.29;92.79;100484.31;7295606;19;20319;-67
2023/12/26 01:38:14;;;;;;;;;;;;;;;12.28;92.69;100483.47;7290914;19;19927;-67
2023/12/26 01:40:41;;;;;;;;;;;;;;;12.28;92.88;100487.94;7292642;19;21622;-67
2023/12/26 01:43:08;;;;;;;;;;;;;;;12.25;92.42;100483.81;7282524;19;19947;-67
2023/12/26 01:45:35;;;;;;;;;;;;;;;12.22;90.94;100488.59;7285907;19;20268;-67
2023/12/26 01:48:03;;;;;;;;;;;;;;;12.18;90.99;100482.88;7296692;19;19922;-67
2023/12/26 01:50:32;;;;;;;;;;;;;;;12.16;90.92;100476.09;7303632;19;19929;-67
2023/12/26 01:52:59;;;;;;;;;;;;;;;12.13;91.33;100489.66;7290875;19;20418;-66
2023/12/26 01:55:27;;;;;;;;;;;;;;;12.09;90.70;100501.53;7295509;19;19927;-67
2023/12/26 01:57:56;;;;;;;;;;;;;;;12.04;90.10;100502.00;7292833;19;19925;-67
2023/12/26 02:00:23;;;;;;;;;;;;;;;12.04;90.37;100506.50;7299559;19;20506;-69
2023/12/26 02:02:50;;;;;;;;;;;;;;;11.99;88.90;100512.25;7289164;19;19922;-67
2023/12/26 02:05:17;;;;;;;;;;;;;;;11.96;89.34;100517.88;7290983;19;19922;-67
2023/12/26 02:07:44;;;;;;;;;;;;;;;11.93;89.35;100519.06;7286757;19;19922;-66
2023/12/26 02:10:11;;;;;;;;;;;;;;;11.92;89.36;100516.56;7302091;19;20348;-66
2023/12/26 02:12:38;;;;;;;;;;;;;;;11.89;89.20;100523.00;7311423;19;19931;-67
2023/12/26 02:15:05;;;;;;;;;;;;;;;11.86;88.29;100527.78;7307924;19;19919;-66
2023/12/26 02:17:34;;;;;;;;;;;;;;;11.79;87.26;100527.63;7283027;19;19918;-67
2023/12/26 02:20:01;;;;;;;;;;;;;;;11.75;87.83;100536.88;7294195;19;20190;-67
2023/12/26 02:22:29;;;;;;;;;;;;;;;11.72;87.74;100537.19;7287588;19;20448;-68
2023/12/26 02:24:56;;;;;;;;;;;;;;;11.72;86.92;100550.38;7295688;19;20023;-67
2023/12/26 02:27:24;;;;;;;;;;;;;;;11.67;85.36;100555.31;7297788;19;22544;-67
2023/12/26 02:29:52;;;;;;;;;;;;;;;11.67;85.52;100565.03;7294119;19;20506;-67
2023/12/26 02:32:20;;;;;;;;;;;;;;;11.69;86.30;100578.84;7289836;19;20032;-67
2023/12/26 02:34:50;;;;;;;;;;;;;;;11.67;85.97;100567.66;7289118;19;20071;-67
2023/12/26 02:37:17;;;;;;;;;;;;;;;11.63;85.56;100579.53;7296362;19;20767;-67
2023/12/26 02:39:45;;;;;;;;;;;;;;;11.61;85.88;100581.50;7290031;19;19930;-68
2023/12/26 02:42:12;;;;;;;;;;;;;;;11.58;85.03;100586.09;7300685;19;20364;-68
2023/12/26 02:44:39;;;;;;;;;;;;;;;11.56;84.84;100595.16;7305310;19;20327;-66
2023/12/26 02:47:06;;;;;;;;;;;;;;;11.50;82.90;100595.81;7284267;19;20166;-67
2023/12/26 02:49:32;;;;;;;;;;;;;;;11.49;83.29;100597.63;7294986;19;19943;-66
2023/12/26 02:52:03;;;;;;;;;;;;;;;11.47;83.27;100593.53;7297187;19;19922;-67
2023/12/26 02:54:30;;;;;;;;;;;;;;;11.48;83.17;100595.16;7295957;19;19994;-67
2023/12/26 02:56:57;;;;;;;;;;;;;;;11.46;82.30;100600.59;7300680;19;19939;-67
2023/12/26 02:59:24;;;;;;;;;;;;;;;11.48;83.55;100609.16;7295930;19;21630;-66
2023/12/26 03:01:54;;;;;;;;;;;;;;;11.49;82.81;100610.81;7288804;19;19918;-67
2023/12/26 03:04:21;;;;;;;;;;;;;;;11.47;81.10;100614.59;7292612;19;19955;-68
2023/12/26 03:06:48;;;;;;;;;;;;;;;11.45;81.84;100604.22;7296769;19;19926;-66
2023/12/26 03:09:15;;;;;;;;;;;;;;;11.45;83.07;100606.84;7291705;19;20248;-67
2023/12/26 03:11:42;;;;;;;;;;;;;;;11.43;83.26;100605.34;7306941;19;20553;-66
2023/12/26 03:14:09;;;;;;;;;;;;;;;11.41;81.94;100599.44;7294495;19;19925;-66
2023/12/26 03:16:35;;;;;;;;;;;;;;;11.40;82.56;100606.53;7289752;19;20292;-67
2023/12/26 03:19:02;;;;;;;;;;;;;;;11.37;83.18;100606.88;7277674;19;19917;-67
2023/12/26 03:21:29;;;;;;;;;;;;;;;11.37;84.02;100612.13;7297379;19;20510;-69
2023/12/26 03:23:56;;;;;;;;;;;;;;;11.34;83.70;100609.81;7306177;19;19925;-66
2023/12/26 03:26:23;;;;;;;;;;;;;;;11.32;84.11;100619.69;7313456;19;19995;-67
2023/12/26 03:28:50;;;;;;;;;;;;;;;11.34;83.77;100615.06;7316624;19;19950;-67
2023/12/26 03:31:17;;;;;;;;;;;;;;;11.36;84.53;100626.28;7323133;19;20350;-67
2023/12/26 03:33:43;;;;;;;;;;;;;;;11.35;84.95;100635.16;7317540;19;20737;-66
2023/12/26 03:36:10;;;;;;;;;;;;;;;11.30;83.46;100637.47;7312919;19;20213;-67
2023/12/26 03:38:37;;;;;;;;;;;;;;;11.30;84.12;100641.91;7305761;19;19921;-67
2023/12/26 03:41:04;;;;;;;;;;;;;;;11.28;85.46;100643.88;7316096;19;19926;-67
2023/12/26 03:43:31;;;;;;;;;;;;;;;11.30;85.64;100647.16;7313877;19;20753;-67
2023/12/26 03:45:58;;;;;;;;;;;;;;;11.28;85.43;100644.69;7305356;19;19915;-67
2023/12/26 03:48:26;;;;;;;;;;;;;;;11.25;85.47;100649.47;7301115;19;19946;-67
2023/12/26 03:50:53;;;;;;;;;;;;;;;11.24;86.26;100648.63;7307199;19;19930;-67
2023/12/26 03:53:20;;;;;;;;;;;;;;;11.24;86.49;100647.81;7307129;19;20360;-67
2023/12/26 03:55:49;;;;;;;;;;;;;;;11.23;86.44;100660.16;7313362;19;19925;-66
2023/12/26 03:58:17;;;;;;;;;;;;;;;11.22;86.77;100655.06;7309379;19;20988;-66
2023/12/26 04:00:44;;;;;;;;;;;;;;;11.18;87.11;100657.19;7287396;19;20159;-67
2023/12/26 04:03:11;;;;;;;;;;;;;;;11.18;87.62;100648.44;7301294;19;19935;-68
2023/12/26 04:05:38;;;;;;;;;;;;;;;11.14;88.02;100651.41;7303443;19;20725;-67
2023/12/26 04:08:05;;;;;;;;;;;;;;;11.16;88.47;100661.81;7306521;19;19927;-67
2023/12/26 04:10:32;;;;;;;;;;;;;;;11.15;88.34;100660.97;7306823;19;19933;-66
2023/12/26 04:12:58;;;;;;;;;;;;;;;11.11;87.59;100664.09;7311344;19;19923;-67
2023/12/26 04:15:25;;;;;;;;;;;;;;;11.09;88.16;100650.25;7294362;19;21929;-67
2023/12/26 04:17:52;;;;;;;;;;;;;;;11.09;88.76;100658.97;7302052;19;19915;-67
2023/12/26 04:20:19;;;;;;;;;;;;;;;11.07;88.31;100663.56;7303101;19;19926;-67
2023/12/26 04:22:46;;;;;;;;;;;;;;;11.06;88.90;100655.84;7299748;19;19938;-67
2023/12/26 04:25:13;;;;;;;;;;;;;;;11.05;89.21;100660.28;7306601;19;20691;-66
2023/12/26 04:27:40;;;;;;;;;;;;;;;11.04;89.70;100666.53;7302506;19;19938;-67
2023/12/26 04:30:07;;;;;;;;;;;;;;;11.03;89.57;100672.78;7324574;19;20556;-66
2023/12/26 04:32:34;;;;;;;;;;;;;;;11.00;89.41;100665.19;7306590;19;19951;-67
2023/12/26 04:35:01;;;;;;;;;;;;;;;11.00;89.13;100673.09;7290262;19;20412;-67
2023/12/26 04:37:28;;;;;;;;;;;;;;;10.97;89.40;100677.88;7298311;19;19922;-65
2023/12/26 04:39:55;;;;;;;;;;;;;;;10.96;89.41;100678.84;7296871;19;22041;-66
2023/12/26 04:42:22;;;;;;;;;;;;;;;10.93;89.15;100673.88;7304019;19;20398;-67
2023/12/26 04:44:48;;;;;;;;;;;;;;;10.91;88.59;100681.97;7311384;19;19921;-66
2023/12/26 04:47:16;;;;;;;;;;;;;;;10.85;88.29;100682.59;7305693;19;19925;-67
2023/12/26 04:49:43;;;;;;;;;;;;;;;10.85;89.62;100682.59;7302951;19;20890;-66
2023/12/26 04:52:11;;;;;;;;;;;;;;;10.84;88.87;100675.66;7303311;19;19922;-65
2023/12/26 04:54:37;;;;;;;;;;;;;;;10.85;89.19;100684.38;7301773;19;19918;-67
2023/12/26 04:57:04;;;;;;;;;;;;;;;10.84;88.70;100694.09;7293178;19;20361;-66
2023/12/26 04:59:32;;;;;;;;;;;;;;;10.83;88.98;100697.69;7293598;19;19915;-67
2023/12/26 05:01:58;;;;;;;;;;;;;;;10.85;90.24;100701.00;7304387;19;19922;-66
2023/12/26 05:04:25;;;;;;;;;;;;;;;10.85;89.48;100698.38;7298249;19;20659;-67
2023/12/26 05:06:52;;;;;;;;;;;;;;;10.82;88.76;100706.56;7307662;19;19927;-67
2023/12/26 05:09:19;;;;;;;;;;;;;;;10.78;88.48;100709.69;7303010;19;20010;-68
2023/12/26 05:11:46;;;;;;;;;;;;;;;10.79;88.02;100706.91;7292526;19;21873;-67
2023/12/26 05:14:13;;;;;;;;;;;;;;;10.77;88.60;100716.75;7298196;19;19942;-67
2023/12/26 05:16:40;;;;;;;;;;;;;;;10.75;88.69;100708.19;7304769;19;22720;-67
2023/12/26 05:19:11;;;;;;;;;;;;;;;10.78;88.98;100715.75;7291599;19;19919;-67
2023/12/26 05:21:38;;;;;;;;;;;;;;;10.76;87.85;100709.84;7301067;19;19919;-67
2023/12/26 05:24:05;;;;;;;;;;;;;;;10.75;87.73;100716.09;7293594;19;20011;-67
2023/12/26 05:26:39;;;;;;;;;;;;;;;10.77;89.12;100727.28;7298303;19;19919;-66
2023/12/26 05:29:06;;;;;;;;;;;;;;;10.77;88.77;100718.59;7299082;19;21214;-68
2023/12/26 05:31:33;;;;;;;;;;;;;;;10.78;88.45;100725.47;7290008;19;19923;-66
2023/12/26 05:34:02;;;;;;;;;;;;;;;10.78;87.91;100728.09;7292437;19;19911;-68
2023/12/26 05:36:29;;;;;;;;;;;;;;;10.78;88.25;100728.09;7291786;19;20339;-67
2023/12/26 05:38:56;;;;;;;;;;;;;;;10.76;86.77;100727.44;7296623;19;19921;-70
2023/12/26 05:41:23;;;;;;;;;;;;;;;10.76;86.54;100724.81;7303012;19;19927;-67
2023/12/26 05:43:50;;;;;;;;;;;;;;;10.69;85.82;100717.53;7305953;19;20346;-67
2023/12/26 05:46:18;;;;;;;;;;;;;;;10.66;85.69;100731.03;7306156;19;19926;-66
2023/12/26 05:48:45;;;;;;;;;;;;;;;10.65;86.32;100734.63;7290787;19;19922;-67
2023/12/26 05:51:12;;;;;;;;;;;;;;;10.62;85.67;100729.66;7293765;19;19986;-67
2023/12/26 05:53:39;;;;;;;;;;;;;;;10.62;85.25;100734.91;7296516;19;19923;-67
2023/12/26 05:56:06;;;;;;;;;;;;;;;10.60;85.14;100746.59;7298879;19;19936;-67
2023/12/26 05:58:33;;;;;;;;;;;;;;;10.61;85.55;100745.63;7306756;19;20181;-66
2023/12/26 06:01:01;;;;;;;;;;;;;;;10.62;86.23;100757.78;7296885;19;19923;-67
2023/12/26 06:03:28;;;;;;;;;;;;;;;10.62;85.39;100765.66;7315896;19;19926;-67
2023/12/26 06:05:55;;;;;;;;;;;;;;;10.62;85.05;100776.19;7294926;19;19919;-67
2023/12/26 06:08:26;;;;;;;;;;;;;;;10.63;85.37;100777.84;7296666;19;20267;-67
2023/12/26 06:10:53;;;;;;;;;;;;;;;10.61;85.13;100791.19;7294228;19;19974;-67
2023/12/26 06:13:21;;;;;;;;;;;;;;;10.61;84.30;100796.44;7291615;19;19923;-67
2023/12/26 06:15:57;;;;;;;;;;;;;;;10.60;84.46;100800.03;7297315;19;19937;-66
2023/12/26 06:18:24;;;;;;;;;;;;;;;10.60;84.29;100802.69;7304122;19;19919;-66
2023/12/26 06:20:51;;;;;;;;;;;;;;;10.62;84.59;100805.97;7290421;19;20054;-66
2023/12/26 06:23:18;;;;;;;;;;;;;;;10.59;82.46;100808.09;7296568;19;19927;-67
2023/12/26 06:25:48;;;;;;;;;;;;;;;10.51;81.81;100819.38;7289028;19;20375;-68
2023/12/26 06:28:15;;;;;;;;;;;;;;;10.51;83.14;100826.44;7287388;19;20241;-67
2023/12/26 06:30:42;;;;;;;;;;;;;;;10.50;83.43;100817.72;7288060;19;19922;-66
2023/12/26 06:33:09;;;;;;;;;;;;;;;10.52;83.86;100817.56;7286818;19;20549;-67
2023/12/26 06:35:38;;;;;;;;;;;;;;;10.54;83.13;100823.50;7296739;19;20580;-67
2023/12/26 06:38:12;;;;;;;;;;;;;;;10.51;82.62;100827.28;7299242;19;19919;-67
2023/12/26 06:40:40;;;;;;;;;;;;;;;10.50;82.53;100830.06;7282509;19;20226;-67
2023/12/26 06:43:08;;;;;;;;;;;;;;;10.44;81.65;100836.75;7285871;19;19910;-67
2023/12/26 06:45:35;;;;;;;;;;;;;;;10.40;81.99;100830.13;7302287;19;19930;-67
2023/12/26 06:48:02;;;;;;;;;;;;;;;10.40;82.42;100842.47;7296145;19;19978;-67
2023/12/26 06:50:30;;;;;;;;;;;;;;;10.41;82.81;100838.84;7298243;19;19919;-67
2023/12/26 06:52:56;;;;;;;;;;;;;;;10.38;82.66;100845.22;7299766;19;20976;-66
2023/12/26 06:55:24;;;;;;;;;;;;;;;10.38;83.69;100847.03;7280846;19;20294;-66
2023/12/26 06:57:50;;;;;;;;;;;;;;;10.37;83.39;100855.88;7296805;19;20927;-66
2023/12/26 07:00:18;;;;;;;;;;;;;;;10.34;82.93;100872.81;7284850;19;20913;-68
2023/12/26 07:02:45;;;;;;;;;;;;;;;10.31;83.27;100873.09;7280139;19;22003;-67
2023/12/26 07:05:12;;;;;;;;;;;;;;;10.32;83.32;100873.94;7290667;19;20785;-68
2023/12/26 07:07:39;;;;;;;;;;;;;;;10.30;83.98;100892.50;7288346;19;19938;-68
2023/12/26 07:10:06;;;;;;;;;;;;;;;10.29;84.27;100902.19;7277277;19;19919;-67
2023/12/26 07:12:33;;;;;;;;;;;;;;;10.32;84.02;100906.31;7293838;19;20488;-67
2023/12/26 07:14:59;;;;;;;;;;;;;;;10.25;83.20;100910.53;7284706;19;19915;-67
2023/12/26 07:17:27;;;;;;;;;;;;;;;10.23;83.45;100925.63;7281126;19;20351;-67
2023/12/26 07:19:54;;;;;;;;;;;;;;;10.23;84.81;100934.34;7294184;19;19923;-67
2023/12/26 07:22:20;;;;;;;;;;;;;;;10.23;84.64;100941.41;7287623;19;20323;-66
2023/12/26 07:24:47;;;;;;;;;;;;;;;10.23;84.59;100939.59;7292979;19;20537;-66
2023/12/26 07:27:14;;;;;;;;;;;;;;;10.23;83.86;100942.22;7283950;19;19994;-66
2023/12/26 07:29:41;;;;;;;;;;;;;;;10.23;84.49;100946.66;7295876;19;21002;-67
2023/12/26 07:32:09;;;;;;;;;;;;;;;10.22;84.63;100951.09;7279456;19;20705;-68
2023/12/26 07:34:41;;;;;;;;;;;;;;;10.20;84.34;100950.41;7291641;19;19938;-67
2023/12/26 07:37:08;;;;;;;;;;;;;;;10.19;84.84;100954.03;7280545;19;19922;-67
2023/12/26 07:39:35;;;;;;;;;;;;;;;10.17;84.64;100958.59;7293128;19;20600;-67
2023/12/26 07:42:03;;;;;;;;;;;;;;;10.17;84.53;100970.91;7286526;19;19927;-67
2023/12/26 07:44:32;;;;;;;;;;;;;;;10.16;84.94;100974.50;7280688;19;19921;-67
2023/12/26 07:47:02;;;;;;;;;;;;;;;10.15;84.57;100978.09;7287558;19;19915;-67
2023/12/26 07:49:31;;;;;;;;;;;;;;;10.13;84.55;100977.41;7276630;19;19922;-66
2023/12/26 07:51:59;;;;;;;;;;;;;;;10.12;85.26;100975.75;7272386;19;19926;-67
2023/12/26 07:54:27;;;;;;;;;;;;;;;10.14;86.04;100984.31;7283471;19;20096;-67
2023/12/26 07:56:54;;;;;;;;;;;;;;;10.12;85.17;101002.03;7296429;19;20557;-68
2023/12/26 07:59:21;;;;;;;;;;;;;;;10.08;84.96;101017.28;7284201;19;19927;-66
2023/12/26 08:01:52;;;;;;;;;;;;;;;10.08;84.77;101012.00;7296316;19;22614;-67
2023/12/26 08:04:20;;;;;;;;;;;;;;;10.07;85.58;101031.38;7293568;19;20659;-67
2023/12/26 08:06:46;;;;;;;;;;;;;;;10.04;85.67;101039.56;7315062;19;19927;-67
2023/12/26 08:09:15;;;;;;;;;;;;;;;10.03;85.60;101056.31;7319218;19;20324;-68
2023/12/26 08:11:42;;;;;;;;;;;;;;;10.01;85.25;101067.94;7316317;19;19969;-67
2023/12/26 08:14:09;;;;;;;;;;;;;;;9.99;85.12;101083.88;7291700;19;21158;-67
2023/12/26 08:16:36;;;;;;;;;;;;;;;10.01;85.41;101091.59;7302549;19;21168;-67
2023/12/26 08:19:04;;;;;;;;;;;;;;;10.01;85.11;101105.56;7305299;19;19915;-66
2023/12/26 08:21:31;;;;;;;;;;;;;;;10.03;85.38;101097.53;7302133;19;19929;-66
2023/12/26 08:23:58;;;;;;;;;;;;;;;10.02;85.24;101090.63;7285238;19;19926;-66
2023/12/26 08:26:31;;;;;;;;;;;;;;;10.02;85.73;101094.06;7295192;19;19919;-66
2023/12/26 08:28:59;;;;;;;;;;;;;;;10.03;86.80;101103.63;7297919;19;19927;-66
2023/12/26 08:31:26;;;;;;;;;;;;;;;10.03;86.73;101095.75;7293745;19;20264;-66
2023/12/26 08:33:53;;;;;;;;;;;;;;;10.04;86.94;101100.03;7292334;19;20012;-67
2023/12/26 08:36:20;;;;;;;;;;;;;;;10.02;85.98;101103.75;7311353;19;20523;-67
2023/12/26 08:38:48;;;;;;;;;;;;;;;9.99;84.95;101094.38;7298115;19;21812;-67
2023/12/26 08:41:17;;;;;;;;;;;;;;;9.98;85.15;101095.34;7296615;19;20889;-68
2023/12/26 08:43:44;;;;;;;;;;;;;;;9.98;85.63;101090.09;7295000;19;20360;-67
2023/12/26 08:46:11;;;;;;;;;;;;;;;9.95;85.57;101102.69;7307931;19;19927;-66
2023/12/26 08:48:39;;;;;;;;;;;;;;;9.97;85.58;101106.00;7291551;19;20106;-66
2023/12/26 08:51:06;;;;;;;;;;;;;;;9.95;85.69;101108.78;7293721;19;19923;-66
2023/12/26 08:53:33;;;;;;;;;;;;;;;9.95;85.30;101114.03;7306168;19;19938;-66
2023/12/26 08:56:01;;;;;;;;;;;;;;;9.97;85.98;101122.59;7300769;19;19915;-67
2023/12/26 08:58:32;;;;;;;;;;;;;;;9.96;86.18;101120.91;7306099;19;19927;-67
2023/12/26 09:01:02;;;;;;;;;;;;;;;9.96;86.22;101126.19;7285393;19;20874;-67
2023/12/26 09:03:29;;;;;;;;;;;;;;;9.98;86.58;101137.41;7296980;19;19927;-67
2023/12/26 09:05:58;;;;;;;;;;;;;;;9.99;86.34;101131.19;7296681;19;20663;-67
2023/12/26 09:08:27;;;;;;;;;;;;;;;10.01;86.07;101142.34;7294631;19;20576;-67
2023/12/26 09:10:58;;;;;;;;;;;;;;;10.00;85.73;101160.91;7302036;19;20383;-67
2023/12/26 09:13:28;;;;;;;;;;;;;;;10.01;86.13;101155.50;7296592;19;19955;-67
2023/12/26 09:15:59;;;;;;;;;;;;;;;10.05;86.87;101169.22;7295029;19;20047;-66
2023/12/26 09:18:27;;;;;;;;;;;;;;;10.06;86.34;101174.31;7293315;19;19929;-66
2023/12/26 09:20:54;;;;;;;;;;;;;;;10.09;85.99;101179.31;7292052;19;21369;-67
2023/12/26 09:23:26;;;;;;;;;;;;;;;10.11;85.49;101182.59;7298468;19;20607;-67
2023/12/26 09:26:04;;;;;;;;;;;;;;;10.15;86.07;101184.00;7291216;19;19918;-67
2023/12/26 09:28:33;;;;;;;;;;;;;;;10.17;86.36;101195.22;7285850;19;19915;-67
2023/12/26 09:31:00;;;;;;;;;;;;;;;10.18;86.22;101191.63;7294118;19;19919;-66
2023/12/26 09:33:29;;;;;;;;;;;;;;;10.19;85.68;101197.72;7303135;19;19910;-68
2023/12/26 09:35:59;;;;;;;;;;;;;;;10.19;85.53;101203.81;7297297;19;19926;-67
2023/12/26 09:38:31;;;;;;;;;;;;;;;10.17;85.31;101195.22;7294114;19;20329;-67
2023/12/26 09:40:58;;;;;;;;;;;;;;;10.21;86.52;101199.22;7294071;19;20338;-67
2023/12/26 09:43:26;;;;;;;;;;;;;;;10.27;86.61;101203.94;7282499;19;20509;-67
2023/12/26 09:45:56;;;;;;;;;;;;;;;10.26;85.57;101220.66;7298406;19;20352;-67
2023/12/26 09:48:27;;;;;;;;;;;;;;;10.26;85.25;101227.72;7294111;19;20029;-67
2023/12/26 09:51:09;;;;;;;;;;;;;;;10.26;85.95;101227.72;7289520;19;19925;-66
2023/12/26 09:53:43;;;;;;;;;;;;;;;10.28;86.44;101220.53;7295199;19;20022;-67
2023/12/26 09:56:12;;;;;;;;;;;;;;;10.30;85.54;101223.88;7307770;19;20514;-67
2023/12/26 09:58:43;;;;;;;;;;;;;;;10.31;85.41;101229.97;7290726;19;20357;-67
2023/12/26 10:01:12;;;;;;;;;;;;;;;10.32;85.44;101235.06;7303436;19;19930;-68
2023/12/26 10:03:41;;;;;;;;;;;;;;;10.33;85.30;101249.03;7310665;19;19919;-68
2023/12/26 10:06:18;;;;;;;;;;;;;;;10.34;85.31;101264.69;7300607;19;19919;-67
2023/12/26 10:08:47;;;;;;;;;;;;;;;10.36;84.76;101265.41;7293956;19;19919;-67
2023/12/26 10:11:15;;;;;;;;;;;;;;;10.34;84.83;101262.06;7275423;19;19922;-68
2023/12/26 10:13:44;;;;;;;;;;;;;;;10.37;84.88;101260.94;7290921;19;20355;-68
2023/12/26 10:16:12;;;;;;;;;;;;;;;10.36;84.28;101260.13;7292087;19;19938;-67
2023/12/26 10:18:42;;;;;;;;;;;;;;;10.39;83.83;101262.47;7284699;19;20000;-68
2023/12/26 10:21:11;;;;;;;;;;;;;;;10.42;83.84;101270.06;7309411;19;19926;-68
2023/12/26 10:23:40;;;;;;;;;;;;;;;10.42;83.59;101258.72;7304369;19;19914;-66
2023/12/26 10:26:23;;;;;;;;;;;;;;;;;;;;;
2023/12/26 10:28:53;;;;;;;;;;;;;;;10.42;83.02;101251.66;7287298;19;19925;-67
2023/12/26 10:31:20;;;;;;;;;;;;;;;10.44;82.74;101262.88;7300763;19;19915;-67
2023/12/26 10:33:48;;;;;;;;;;;;;;;10.46;82.69;101257.47;7296001;19;21729;-67
2023/12/26 10:36:16;;;;;;;;;;;;;;;10.49;83.58;101257.19;7285544;19;20629;-67
2023/12/26 10:38:45;;;;;;;;;;;;;;;10.53;83.50;101256.75;7291173;19;19919;-67
2023/12/26 10:41:25;;;;;;;;;;;;;;;10.56;83.36;101263.56;7291053;19;19930;-67
2023/12/26 10:43:56;;;;;;;;;;;;;;;10.59;82.56;101279.88;7297836;19;21612;-68
2023/12/26 10:46:29;;;;;;;;;;;;;;;10.56;81.42;101285.44;7309603;19;19927;-68
2023/12/26 10:49:04;;;;;;;;;;;;;;;10.63;82.06;101293.56;7293866;19;19949;-67
2023/12/26 10:51:33;;;;;;;;;;;;;;;10.60;81.27;101310.50;7299317;19;20270;-67
2023/12/26 10:54:07;;;;;;;;;;;;;;;10.62;81.93;101305.06;7293485;19;19947;-67
2023/12/26 10:56:35;;;;;;;;;;;;;;;10.62;82.10;101303.25;7297535;19;20312;-67
2023/12/26 10:59:08;;;;;;;;;;;;;;;10.67;82.59;101308.94;7287316;19;20094;-67
2023/12/26 13:51:58;;;;;;;;;;;;;;;11.26;78.00;101378.91;7297174;19;19929;-67
2023/12/26 13:54:27;;;;;;;;;;;;;;;11.32;79.16;101370.44;7287976;19;19941;-65
2023/12/26 13:57:00;;;;;;;;;;;;;;;11.32;78.67;101374.88;7281225;19;19915;-66
2023/12/26 13:59:29;;;;;;;;;;;;;;;11.34;78.53;101381.66;7287315;19;19923;-67
2023/12/26 14:01:57;;;;;;;;;;;;;;;11.33;78.27;101377.34;7303929;19;19930;-67
2023/12/26 14:04:26;;;;;;;;;;;;;;;11.31;78.47;101389.84;7287983;19;20730;-66
2023/12/26 14:06:55;;;;;;;;;;;;;;;11.29;77.61;101393.59;7277875;19;19955;-67
2023/12/26 14:09:24;;;;;;;;;;;;;;;11.26;77.96;101397.34;7291520;19;20585;-67
2023/12/26 14:11:52;;;;;;;;;;;;;;;11.25;77.66;101390.44;7304731;19;20491;-67
2023/12/26 14:14:25;;;;;;;;;;;;;;;11.23;77.87;101389.72;7282662;19;20014;-67
2023/12/26 14:16:53;;;;;;;;;;;;;;;11.22;77.82;101393.34;7294816;19;19922;-66
2023/12/26 14:19:41;;;;;;;;;;;;;;;11.19;77.34;101384.88;7291244;19;19964;-66
2023/12/26 14:22:27;;;;;;;;;;;;;;;11.16;77.29;101393.91;7297145;19;20794;-66
2023/12/26 14:25:16;;;;;;;;;;;;;;;11.13;77.44;101399.47;7300295;19;19930;-66
2023/12/26 14:28:02;;;;;;;;;;;;;;;11.13;77.98;101400.28;7291045;19;19925;-66
2023/12/26 14:30:50;;;;;;;;;;;;;;;11.13;78.72;101400.28;7294530;19;19942;-67
2023/12/26 14:33:38;;;;;;;;;;;;;;;11.11;78.08;101402.25;7292862;19;19914;-67
2023/12/26 14:36:27;;;;;;;;;;;;;;;11.09;77.80;101396.28;7288779;19;20002;-66
2023/12/26 14:39:13;;;;;;;;;;;;;;;11.10;78.28;101390.06;7282883;19;19923;-66
2023/12/26 14:42:01;;;;;;;;;;;;;;;11.12;79.20;101387.28;7289789;19;19963;-66
2023/12/26 14:44:48;;;;;;;;;;;;;;;11.14;78.53;101387.94;7292855;19;20002;-66
2023/12/26 14:47:34;;;;;;;;;;;;;;;11.13;78.23;101402.91;7291281;19;20168;-67
2023/12/26 14:50:21;;;;;;;;;;;;;;;11.10;77.67;101400.59;7274293;19;20443;-66
2023/12/26 14:53:07;;;;;;;;;;;;;;;11.12;77.70;101411.00;7300456;19;20015;-66
2023/12/26 14:55:53;;;;;;;;;;;;;;;11.11;77.31;101406.69;7291037;19;19951;-66
2023/12/26 14:58:41;;;;;;;;;;;;;;;11.10;77.53;101407.66;7294924;19;19919;-66
2023/12/26 15:01:29;;;;;;;;;;;;;;;11.08;77.50;101401.69;7282300;19;20034;-65
2023/12/26 15:03:58;;;;;;;;;;;;;;;11.05;77.32;101389.66;7283825;19;19946;-66
2023/12/26 15:06:30;;;;;;;;;;;;;;;11.02;77.57;101383.84;7292515;19;19922;-67
2023/12/26 15:08:59;;;;;;;;;;;;;;;11.01;77.86;101385.66;7293823;19;19933;-65
2023/12/26 15:11:26;;;;;;;;;;;;;;;10.99;78.79;101384.09;7290658;19;19915;-66
2023/12/26 15:13:54;;;;;;;;;;;;;;;10.98;79.09;101387.72;7300303;19;19927;-67
2023/12/26 15:16:41;;;;;;;;;;;;;;;10.96;79.37;101402.84;7297732;19;20518;-66
2023/12/26 15:19:08;;;;;;;;;;;;;;;10.91;79.26;101411.16;7284442;19;19919;-66
2023/12/26 15:21:43;;;;;;;;;;;;;;;10.88;80.18;101413.22;7297973;19;20496;-66
2023/12/26 15:24:12;;;;;;;;;;;;;;;10.83;80.54;101413.63;7306492;19;19927;-66
2023/12/26 15:26:40;;;;;;;;;;;;;;;10.82;80.64;101414.59;7298316;19;19945;-66
2023/12/26 15:29:06;;;;;;;;;;;;;;;10.76;80.17;101399.41;7291740;19;19930;-66
2023/12/26 15:31:33;;;;;;;;;;;;;;;10.72;80.45;101396.19;7277107;19;20159;-66
2023/12/26 15:34:01;;;;;;;;;;;;;;;10.69;80.59;101385.97;7299363;19;19922;-66
2023/12/26 15:36:28;;;;;;;;;;;;;;;10.66;80.22;101390.69;7297121;19;19938;-66